createdAt,value
2019-04-16T00:00:35.349Z,12.87
2019-04-16T00:03:04.238Z,9.43
2019-04-16T00:05:34.758Z,10.47
2019-04-16T00:08:10.040Z,10.10
2019-04-16T00:10:46.663Z,8.70
2019-04-16T00:13:23.894Z,11.17
2019-04-16T00:15:52.844Z,9.73
2019-04-16T00:18:21.742Z,8.63
2019-04-16T00:20:52.276Z,8.33
2019-04-16T00:23:22.747Z,7.73
2019-04-16T00:25:52.065Z,7.57
2019-04-16T00:28:22.204Z,10.00
2019-04-16T00:30:51.134Z,7.27
2019-04-16T00:33:20.041Z,10.67
2019-04-16T00:35:48.983Z,5.63
2019-04-16T00:38:22.477Z,6.03
2019-04-16T00:40:48.446Z,9.03
2019-04-16T00:43:17.342Z,8.43
2019-04-16T00:45:46.276Z,10.77
2019-04-16T00:48:15.164Z,6.93
2019-04-16T00:50:44.095Z,6.67
2019-04-16T00:53:12.996Z,7.83
2019-04-16T00:55:42.393Z,8.97
2019-04-16T00:58:12.467Z,8.50
2019-04-16T01:00:41.505Z,8.30
2019-04-16T01:03:10.403Z,5.50
2019-04-16T01:05:39.293Z,7.50
2019-04-16T01:08:08.225Z,7.80
2019-04-16T01:10:37.124Z,9.83
2019-04-16T01:13:06.036Z,5.33
2019-04-16T01:15:34.923Z,7.97
2019-04-16T01:18:04.565Z,9.70
2019-04-16T01:20:34.398Z,6.50
2019-04-16T01:23:03.439Z,5.07
2019-04-16T01:25:32.334Z,6.40
2019-04-16T01:28:02.942Z,4.53
2019-04-16T01:30:36.545Z,6.07
2019-04-16T01:33:14.674Z,8.17
2019-04-16T01:35:51.086Z,6.10
2019-04-16T01:38:27.703Z,4.67
2019-04-16T01:40:55.197Z,8.03
2019-04-16T01:43:25.743Z,5.93
2019-04-16T01:45:54.704Z,5.70
2019-04-16T01:48:23.623Z,10.07
2019-04-16T01:50:52.515Z,6.20
2019-04-16T01:53:21.744Z,7.40
2019-04-16T01:55:50.698Z,5.57
2019-04-16T01:58:19.627Z,5.37
2019-04-16T02:00:48.506Z,4.67
2019-04-16T02:03:18.430Z,8.10
2019-04-16T02:05:47.531Z,9.30
2019-04-16T02:08:16.464Z,9.17
2019-04-16T02:10:45.365Z,7.60
2019-04-16T02:13:14.962Z,4.73
2019-04-16T02:15:44.885Z,7.10
2019-04-16T02:18:13.813Z,4.17
2019-04-16T02:20:42.705Z,4.30
2019-04-16T02:23:13.543Z,5.67
2019-04-16T02:25:42.187Z,6.97
2019-04-16T02:28:11.054Z,5.17
2019-04-16T02:30:39.965Z,7.10
2019-04-16T02:33:08.885Z,7.60
2019-04-16T02:35:37.777Z,4.47
2019-04-16T02:38:12.178Z,6.63
2019-04-16T02:40:37.903Z,3.33
2019-04-16T02:43:08.053Z,7.33
2019-04-16T02:45:37.321Z,7.10
2019-04-16T02:48:06.219Z,7.63
2019-04-16T02:50:39.609Z,6.70
2019-04-16T02:53:26.536Z,4.50
2019-04-16T02:55:57.054Z,5.50
2019-04-16T02:58:33.956Z,4.00
2019-04-16T03:01:02.653Z,5.50
2019-04-16T03:03:33.122Z,4.23
2019-04-16T03:06:02.170Z,7.23
2019-04-16T03:08:33.432Z,4.13
2019-04-16T03:11:02.001Z,5.13
2019-04-16T03:13:30.944Z,3.97
2019-04-16T03:16:17.670Z,3.87
2019-04-16T03:18:48.377Z,3.47
2019-04-16T03:21:17.382Z,7.43
2019-04-16T03:23:46.303Z,7.20
2019-04-16T03:26:17.561Z,3.10
2019-04-16T03:28:45.780Z,7.03
2019-04-16T03:31:19.445Z,4.07
2019-04-16T03:33:50.521Z,5.40
2019-04-16T03:36:15.868Z,4.80
2019-04-16T03:38:44.813Z,7.03
2019-04-16T03:41:13.756Z,7.07
2019-04-16T03:43:42.638Z,3.87
2019-04-16T03:46:13.080Z,3.67
2019-04-16T03:48:42.128Z,2.60
2019-04-16T03:51:11.053Z,5.03
2019-04-16T03:53:39.951Z,3.67
2019-04-16T03:56:08.884Z,4.33
2019-04-16T03:58:38.788Z,4.70
2019-04-16T04:01:08.395Z,4.70
2019-04-16T04:03:37.382Z,2.97
2019-04-16T04:06:07.883Z,5.80
2019-04-16T04:08:36.852Z,4.47
2019-04-16T04:11:09.094Z,3.03
2019-04-16T04:13:36.328Z,6.43
2019-04-16T04:16:05.228Z,4.23
2019-04-16T04:18:34.900Z,2.30
2019-04-16T04:21:03.793Z,3.70
2019-04-16T04:23:32.723Z,6.67
2019-04-16T04:26:01.618Z,2.27
2019-04-16T04:28:30.549Z,2.47
2019-04-16T04:31:00.908Z,4.10
2019-04-16T04:33:41.606Z,4.93
2019-04-16T04:36:10.934Z,4.07
2019-04-16T04:38:40.463Z,4.53
2019-04-16T04:41:09.357Z,3.60
2019-04-16T04:43:38.278Z,3.30
2019-04-16T04:46:12.974Z,3.77
2019-04-16T04:48:37.870Z,4.10
2019-04-16T04:51:08.200Z,3.97
2019-04-16T04:53:37.505Z,3.27
2019-04-16T04:56:06.993Z,8.20
2019-04-16T04:58:35.930Z,4.03
2019-04-16T05:01:04.823Z,5.17
2019-04-16T05:03:51.849Z,4.57
2019-04-16T05:06:34.330Z,5.03
2019-04-16T05:09:03.253Z,3.17
2019-04-16T05:11:32.150Z,4.03
2019-04-16T05:14:01.090Z,5.17
2019-04-16T05:16:31.556Z,5.10
2019-04-16T05:19:00.572Z,2.40
2019-04-16T05:21:29.509Z,9.23
2019-04-16T05:23:58.459Z,7.33
2019-04-16T05:26:27.347Z,8.53
2019-04-16T05:28:57.844Z,7.80
2019-04-16T05:31:26.737Z,8.63
2019-04-16T05:33:59.463Z,8.43
2019-04-16T05:36:26.215Z,9.80
2019-04-16T05:38:55.685Z,8.03
2019-04-16T05:41:25.526Z,7.20
2019-04-16T05:43:54.599Z,5.83
2019-04-16T05:46:23.487Z,6.03
2019-04-16T05:48:54.587Z,9.43
2019-04-16T05:51:23.585Z,7.17
2019-04-16T05:53:54.110Z,4.87
2019-04-16T05:56:24.958Z,5.23
2019-04-16T05:58:54.275Z,7.47
2019-04-16T06:01:27.755Z,5.83
2019-04-16T06:03:56.648Z,9.67
2019-04-16T06:06:25.585Z,8.37
2019-04-16T06:08:56.138Z,3.97
2019-04-16T06:11:29.354Z,8.23
2019-04-16T06:14:03.259Z,5.63
2019-04-16T06:16:43.032Z,5.83
2019-04-16T06:19:28.592Z,4.93
2019-04-16T06:22:16.446Z,4.73
2019-04-16T06:25:08.305Z,5.47
2019-04-16T06:27:35.579Z,3.97
2019-04-16T06:30:19.492Z,6.93
2019-04-16T06:32:55.408Z,5.03
2019-04-16T06:35:43.606Z,6.17
2019-04-16T06:38:15.955Z,4.60
2019-04-16T06:40:55.424Z,6.37
2019-04-16T06:43:38.197Z,7.00
2019-04-16T06:46:25.120Z,5.30
2019-04-16T06:49:01.364Z,6.53
2019-04-16T06:51:48.339Z,4.23
2019-04-16T06:54:25.556Z,4.07
2019-04-16T06:57:13.478Z,6.03
2019-04-16T06:59:43.960Z,6.30
2019-04-16T07:02:30.858Z,4.80
2019-04-16T07:05:16.395Z,6.97
2019-04-16T07:08:03.423Z,5.60
2019-04-16T07:10:43.976Z,6.50
2019-04-16T07:13:07.510Z,5.00
2019-04-16T07:15:35.038Z,9.93
2019-04-16T07:18:05.574Z,8.40
2019-04-16T07:20:34.528Z,5.87
2019-04-16T07:23:03.456Z,8.07
2019-04-16T07:25:39.277Z,8.57
2019-04-16T07:28:07.252Z,4.13
2019-04-16T07:30:40.041Z,7.57
2019-04-16T07:33:09.901Z,7.03
2019-04-16T07:35:40.374Z,5.97
2019-04-16T07:38:11.760Z,5.30
2019-04-16T07:40:42.465Z,6.97
2019-04-16T07:43:31.249Z,8.97
2019-04-16T07:46:01.641Z,4.63
2019-04-16T07:48:32.902Z,6.53
2019-04-16T07:51:12.617Z,7.10
2019-04-16T07:54:02.837Z,6.50
2019-04-16T07:56:31.880Z,8.47
2019-04-16T07:59:01.739Z,7.73
2019-04-16T08:01:31.104Z,9.37
2019-04-16T08:04:00.922Z,9.90
2019-04-16T08:06:30.640Z,9.50
2019-04-16T08:08:59.585Z,9.03
2019-04-16T08:11:28.452Z,10.10
2019-04-16T08:13:57.387Z,7.17
2019-04-16T08:16:26.293Z,8.67
2019-04-16T08:18:55.221Z,7.33
2019-04-16T08:21:24.111Z,5.63
2019-04-16T08:23:54.626Z,7.53
2019-04-16T08:26:23.517Z,6.50
2019-04-16T08:28:52.456Z,5.20
2019-04-16T08:31:22.912Z,15.40
2019-04-16T08:33:51.852Z,10.53
2019-04-16T08:36:20.745Z,4.97
2019-04-16T08:38:49.674Z,7.80
2019-04-16T08:41:21.410Z,5.27
2019-04-16T08:43:49.574Z,7.47
2019-04-16T08:46:18.472Z,5.00
2019-04-16T08:48:49.378Z,8.70
2019-04-16T08:51:29.582Z,7.13
2019-04-16T08:53:48.621Z,7.90
2019-04-16T08:56:17.514Z,4.60
2019-04-16T08:58:46.403Z,7.67
2019-04-16T09:01:18.843Z,5.37
2019-04-16T09:03:47.449Z,6.93
2019-04-16T09:06:16.383Z,8.73
2019-04-16T09:08:52.617Z,5.40
2019-04-16T09:11:23.588Z,5.93
2019-04-16T09:13:58.421Z,4.40
2019-04-16T09:16:27.652Z,5.33
2019-04-16T09:19:01.057Z,5.33
2019-04-16T09:21:30.279Z,5.73
2019-04-16T09:24:17.027Z,6.57
2019-04-16T09:27:04.211Z,5.00
2019-04-16T09:29:41.401Z,6.93
2019-04-16T09:32:18.727Z,7.03
2019-04-16T09:34:49.261Z,7.77
2019-04-16T09:37:28.647Z,8.30
2019-04-16T09:40:16.709Z,5.13
2019-04-16T09:42:38.656Z,6.47
2019-04-16T09:45:11.586Z,9.13
2019-04-16T09:47:42.336Z,8.57
2019-04-16T09:50:11.625Z,6.80
2019-04-16T09:52:43.011Z,10.43
2019-04-16T09:55:12.230Z,5.93
2019-04-16T09:57:42.545Z,5.90
2019-04-16T10:00:17.112Z,7.50
2019-04-16T10:02:45.529Z,4.17
2019-04-16T10:05:14.945Z,7.00
2019-04-16T10:07:43.583Z,7.60
2019-04-16T10:10:12.617Z,6.10
2019-04-16T10:12:41.162Z,5.23
2019-04-16T10:15:10.860Z,5.53
2019-04-16T10:17:39.824Z,9.57
2019-04-16T10:20:08.708Z,6.73
2019-04-16T10:22:37.751Z,7.90
2019-04-16T10:25:08.625Z,11.47
2019-04-16T10:27:39.142Z,7.67
2019-04-16T10:30:17.424Z,5.87
2019-04-16T10:32:46.495Z,7.13
2019-04-16T10:35:15.452Z,6.23
2019-04-16T10:37:44.386Z,7.93
2019-04-16T10:40:15.095Z,8.70
2019-04-16T10:43:01.943Z,6.43
2019-04-16T10:45:48.498Z,5.43
2019-04-16T10:48:21.859Z,9.73
2019-04-16T10:51:07.624Z,6.93
2019-04-16T10:53:50.471Z,7.00
2019-04-16T10:56:22.057Z,5.90
2019-04-16T10:58:55.686Z,5.67
2019-04-16T11:01:34.670Z,5.57
2019-04-16T11:04:17.653Z,6.60
2019-04-16T11:06:49.117Z,7.73
2019-04-16T11:09:19.202Z,5.60
2019-04-16T11:11:48.335Z,5.97
2019-04-16T11:14:17.430Z,7.87
2019-04-16T11:16:47.901Z,7.73
2019-04-16T11:19:17.010Z,5.60
2019-04-16T11:21:45.983Z,8.33
2019-04-16T11:24:15.773Z,6.17
2019-04-16T11:26:45.234Z,6.10
2019-04-16T11:29:14.190Z,7.37
2019-04-16T11:31:43.081Z,8.07
2019-04-16T11:34:13.078Z,5.80
2019-04-16T11:36:42.069Z,6.03
2019-04-16T11:39:11.547Z,13.30
2019-04-16T11:41:40.447Z,6.80
2019-04-16T11:44:15.589Z,6.37
2019-04-16T11:46:39.960Z,7.00
2019-04-16T11:49:09.954Z,5.27
2019-04-16T11:51:40.154Z,8.90
2019-04-16T11:54:11.448Z,8.00
2019-04-16T11:56:40.773Z,8.53
2019-04-16T11:59:10.919Z,9.13
2019-04-16T12:01:58.031Z,8.23
2019-04-16T12:04:28.598Z,6.37
2019-04-16T12:07:14.154Z,6.33
2019-04-16T12:09:59.420Z,7.17
2019-04-16T12:12:29.976Z,7.30
2019-04-16T12:15:00.469Z,5.60
2019-04-16T12:17:47.338Z,6.77
2019-04-16T12:20:27.009Z,7.63
2019-04-16T12:23:13.931Z,7.37
2019-04-16T12:26:00.956Z,6.83
2019-04-16T12:28:31.548Z,8.03
2019-04-16T12:31:16.632Z,10.50
2019-04-16T12:34:03.157Z,9.13
2019-04-16T12:36:39.573Z,6.63
2019-04-16T12:39:19.562Z,8.90
2019-04-16T12:41:50.871Z,8.77
2019-04-16T12:44:27.697Z,8.43
2019-04-16T12:47:07.087Z,9.10
2019-04-16T12:49:53.950Z,12.07
2019-04-16T12:52:24.456Z,9.17
2019-04-16T12:55:13.303Z,10.10
2019-04-16T12:58:00.544Z,13.27
2019-04-16T13:00:37.075Z,10.23
2019-04-16T13:03:07.549Z,7.87
2019-04-16T13:05:54.699Z,9.30
2019-04-16T13:08:34.177Z,9.20
2019-04-16T13:11:16.722Z,11.70
2019-04-16T13:13:56.114Z,9.47
2019-04-16T13:16:41.981Z,11.70
2019-04-16T13:19:12.550Z,7.37
2019-04-16T13:21:45.737Z,10.40
2019-04-16T13:24:22.252Z,10.73
2019-04-16T13:26:52.759Z,15.03
2019-04-16T13:29:21.657Z,10.43
2019-04-16T13:31:50.598Z,12.67
2019-04-16T13:34:19.495Z,14.87
2019-04-16T13:36:51.447Z,9.13
2019-04-16T13:39:26.520Z,12.27
2019-04-16T13:41:55.465Z,11.87
2019-04-16T13:44:31.846Z,13.60
2019-04-16T13:47:03.090Z,10.80
2019-04-16T13:49:41.444Z,12.03
2019-04-16T13:52:10.378Z,11.93
2019-04-16T13:54:43.902Z,14.30
2019-04-16T13:57:17.251Z,11.57
2019-04-16T14:00:05.511Z,12.60
2019-04-16T14:02:36.142Z,10.47
2019-04-16T14:05:09.885Z,15.70
2019-04-16T14:07:36.817Z,10.43
2019-04-16T14:10:07.110Z,11.90
2019-04-16T14:12:42.149Z,11.03
2019-04-16T14:15:09.193Z,9.40
2019-04-16T14:17:51.927Z,12.03
2019-04-16T14:20:12.331Z,12.07
2019-04-16T14:22:40.723Z,11.40
2019-04-16T14:25:09.837Z,10.23
2019-04-16T14:27:38.780Z,12.50
2019-04-16T14:30:11.277Z,11.83
2019-04-16T14:32:40.601Z,13.77
2019-04-16T14:35:11.066Z,10.00
2019-04-16T14:37:39.957Z,8.97
2019-04-16T14:40:16.869Z,9.30
2019-04-16T14:42:45.792Z,10.17
2019-04-16T14:45:34.757Z,10.07
2019-04-16T14:48:07.623Z,10.57
2019-04-16T14:50:33.369Z,9.37
2019-04-16T14:53:02.409Z,7.23
2019-04-16T14:55:32.867Z,8.17
2019-04-16T14:58:06.099Z,9.07
2019-04-16T15:00:52.654Z,8.47
2019-04-16T15:03:43.151Z,8.50
2019-04-16T15:06:17.075Z,10.40
2019-04-16T15:08:50.075Z,12.47
2019-04-16T15:11:23.452Z,11.83
2019-04-16T15:14:10.178Z,9.30
2019-04-16T15:16:43.453Z,12.27
2019-04-16T15:19:25.986Z,8.67
2019-04-16T15:22:14.551Z,7.80
2019-04-16T15:24:48.441Z,15.67
2019-04-16T15:27:18.913Z,10.97
2019-04-16T15:29:49.503Z,10.10
2019-04-16T15:32:25.828Z,10.23
2019-04-16T15:34:56.532Z,11.03
2019-04-16T15:37:27.009Z,12.40
2019-04-16T15:40:00.179Z,12.73
2019-04-16T15:42:48.502Z,11.20
2019-04-16T15:45:25.613Z,8.13
2019-04-16T15:48:14.854Z,9.60
2019-04-16T15:50:57.978Z,9.67
2019-04-16T15:53:44.699Z,8.83
2019-04-16T15:56:30.423Z,9.90
2019-04-16T15:59:00.917Z,8.87
2019-04-16T16:01:31.446Z,12.67
2019-04-16T16:04:13.898Z,7.37
2019-04-16T16:06:44.403Z,8.27
2019-04-16T16:09:21.120Z,13.23
2019-04-16T16:12:09.791Z,9.20
2019-04-16T16:14:38.878Z,7.73
2019-04-16T16:17:07.493Z,8.03
2019-04-16T16:19:36.389Z,10.07
2019-04-16T16:22:08.035Z,6.53
2019-04-16T16:24:36.178Z,6.63
2019-04-16T16:27:05.435Z,9.97
2019-04-16T16:29:34.404Z,8.63
2019-04-16T16:32:03.354Z,10.07
2019-04-16T16:34:32.241Z,10.57
2019-04-16T16:37:01.183Z,13.07
2019-04-16T16:39:30.093Z,8.40
2019-04-16T16:41:59.031Z,8.40
2019-04-16T16:44:27.922Z,9.27
2019-04-16T16:46:58.717Z,6.50
2019-04-16T16:49:28.028Z,10.30
2019-04-16T16:51:58.557Z,9.97
2019-04-16T16:54:28.773Z,7.63
2019-04-16T16:57:05.954Z,7.30
2019-04-16T16:59:37.406Z,11.53
2019-04-16T17:02:10.567Z,6.57
2019-04-16T17:04:41.048Z,8.73
2019-04-16T17:07:10.075Z,10.03
2019-04-16T17:09:38.983Z,9.17
2019-04-16T17:12:07.934Z,11.40
2019-04-16T17:14:37.827Z,14.97
2019-04-16T17:17:14.198Z,8.47
2019-04-16T17:19:37.805Z,9.13
2019-04-16T17:22:06.738Z,10.17
2019-04-16T17:24:35.682Z,10.40
2019-04-16T17:27:04.660Z,7.90
2019-04-16T17:29:33.562Z,8.70
2019-04-16T17:32:02.691Z,10.63
2019-04-16T17:34:31.614Z,11.13
2019-04-16T17:37:00.502Z,6.83
2019-04-16T17:39:46.232Z,8.90
2019-04-16T17:42:16.747Z,6.77
2019-04-16T17:44:57.083Z,8.97
2019-04-16T17:47:33.639Z,7.67
2019-04-16T17:50:06.942Z,7.37
2019-04-16T17:52:49.768Z,7.97
2019-04-16T17:55:20.241Z,8.00
2019-04-16T17:57:50.749Z,10.37
2019-04-16T18:00:27.000Z,10.67
2019-04-16T18:03:06.772Z,8.37
2019-04-16T18:05:40.305Z,8.70
2019-04-16T18:08:27.203Z,8.57
2019-04-16T18:11:06.425Z,10.00
2019-04-16T18:13:52.396Z,7.77
2019-04-16T18:16:27.822Z,8.10
2019-04-16T18:19:16.874Z,7.50
2019-04-16T18:21:50.333Z,13.33
2019-04-16T18:24:29.935Z,9.00
2019-04-16T18:27:12.798Z,11.17
2019-04-16T18:29:43.306Z,12.73
2019-04-16T18:32:13.793Z,10.90
2019-04-16T18:34:44.422Z,10.27
2019-04-16T18:37:26.779Z,8.70
2019-04-16T18:40:13.471Z,10.50
2019-04-16T18:43:00.378Z,11.20
2019-04-16T18:45:47.599Z,12.03
2019-04-16T18:48:24.184Z,10.87
2019-04-16T18:50:53.634Z,10.53
2019-04-16T18:53:22.580Z,17.27
2019-04-16T18:55:51.518Z,11.90
2019-04-16T18:58:20.419Z,10.53
2019-04-16T19:00:54.011Z,8.77
2019-04-16T19:03:22.899Z,9.20
2019-04-16T19:05:52.410Z,10.67
2019-04-16T19:08:21.429Z,9.37
2019-04-16T19:10:50.362Z,9.57
2019-04-16T19:13:20.131Z,8.93
2019-04-16T19:15:49.294Z,11.17
2019-04-16T19:18:20.233Z,11.03
2019-04-16T19:20:51.530Z,13.00
2019-04-16T19:23:21.377Z,11.00
2019-04-16T19:25:51.744Z,8.97
2019-04-16T19:28:22.039Z,9.93
2019-04-16T19:30:51.182Z,14.13
2019-04-16T19:33:20.073Z,8.87
2019-04-16T19:35:51.937Z,8.60
2019-04-16T19:38:19.548Z,7.83
2019-04-16T19:40:50.832Z,10.07
2019-04-16T19:43:19.038Z,8.70
2019-04-16T19:45:47.936Z,9.73
2019-04-16T19:48:18.014Z,7.67
2019-04-16T19:50:47.413Z,17.27
2019-04-16T19:53:16.353Z,9.87
2019-04-16T19:55:46.009Z,9.77
2019-04-16T19:58:15.681Z,18.27
2019-04-16T20:00:44.577Z,10.30
2019-04-16T20:03:13.517Z,13.07
2019-04-16T20:05:42.416Z,10.40
2019-04-16T20:08:11.344Z,9.30
2019-04-16T20:10:40.245Z,17.10
2019-04-16T20:13:09.186Z,10.50
2019-04-16T20:15:43.161Z,8.80
2019-04-16T20:18:08.666Z,15.90
2019-04-16T20:20:37.550Z,12.00
2019-04-16T20:23:06.492Z,14.63
2019-04-16T20:25:35.937Z,18.97
2019-04-16T20:28:08.986Z,15.83
2019-04-16T20:30:36.498Z,10.07
2019-04-16T20:33:05.443Z,13.47
2019-04-16T20:35:34.362Z,14.83
2019-04-16T20:38:03.293Z,16.93
2019-04-16T20:40:32.187Z,11.07
2019-04-16T20:43:01.118Z,8.90
2019-04-16T20:45:30.012Z,13.93
2019-04-16T20:47:59.345Z,17.13
2019-04-16T20:50:28.253Z,11.30
2019-04-16T20:52:57.208Z,13.43
2019-04-16T20:55:26.101Z,12.00
2019-04-16T20:57:59.265Z,11.33
2019-04-16T21:00:32.924Z,17.07
2019-04-16T21:03:02.989Z,19.93
2019-04-16T21:05:35.791Z,12.20
2019-04-16T21:08:03.269Z,11.47
2019-04-16T21:10:35.385Z,14.80
2019-04-16T21:13:02.746Z,14.97
2019-04-16T21:15:31.683Z,16.23
2019-04-16T21:18:00.596Z,11.20
2019-04-16T21:20:29.520Z,15.83
2019-04-16T21:23:01.605Z,12.07
2019-04-16T21:25:28.988Z,10.53
2019-04-16T21:28:05.580Z,16.77
2019-04-16T21:30:35.032Z,13.10
2019-04-16T21:33:06.000Z,19.43
2019-04-16T21:35:42.646Z,13.97
2019-04-16T21:38:13.123Z,14.03
2019-04-16T21:40:42.065Z,18.03
2019-04-16T21:43:10.974Z,14.40
2019-04-16T21:45:39.911Z,14.10
2019-04-16T21:48:12.180Z,13.00
2019-04-16T21:50:39.383Z,14.90
2019-04-16T21:53:08.282Z,13.90
2019-04-16T21:55:37.325Z,12.77
2019-04-16T21:58:06.755Z,16.07
2019-04-16T22:00:40.274Z,12.47
2019-04-16T22:03:11.001Z,15.67
2019-04-16T22:05:40.088Z,14.53
2019-04-16T22:08:09.000Z,8.97
2019-04-16T22:10:37.932Z,13.20
2019-04-16T22:13:06.828Z,12.60
2019-04-16T22:15:35.771Z,10.93
2019-04-16T22:18:07.560Z,13.87
2019-04-16T22:20:35.735Z,11.43
2019-04-16T22:23:05.544Z,14.70
2019-04-16T22:25:34.485Z,11.90
2019-04-16T22:28:03.392Z,9.50
2019-04-16T22:30:32.293Z,13.27
2019-04-16T22:33:05.486Z,8.40
2019-04-16T22:35:32.110Z,15.37
2019-04-16T22:38:01.202Z,11.33
2019-04-16T22:40:31.672Z,14.70
2019-04-16T22:43:06.224Z,11.57
2019-04-16T22:45:37.055Z,12.77
2019-04-16T22:48:05.994Z,12.70
2019-04-16T22:50:37.835Z,9.43
2019-04-16T22:53:05.668Z,12.60
2019-04-16T22:55:34.652Z,13.13
2019-04-16T22:58:04.805Z,8.43
2019-04-16T23:00:35.807Z,17.60
2019-04-16T23:03:04.783Z,11.57
2019-04-16T23:05:33.740Z,14.63
2019-04-16T23:08:02.822Z,13.20
2019-04-16T23:10:31.912Z,10.67
2019-04-16T23:13:01.578Z,9.63
2019-04-16T23:15:30.958Z,14.33
2019-04-16T23:17:59.902Z,8.37
2019-04-16T23:20:30.051Z,7.33
2019-04-16T23:22:59.350Z,8.67
2019-04-16T23:25:28.274Z,18.63
2019-04-16T23:27:57.714Z,9.80
2019-04-16T23:30:26.765Z,9.73
2019-04-16T23:32:59.019Z,8.47
2019-04-16T23:35:26.245Z,11.97
2019-04-16T23:37:58.071Z,8.60
2019-04-16T23:40:25.717Z,14.73
2019-04-16T23:42:56.229Z,9.83
2019-04-16T23:45:31.409Z,9.40
2019-04-16T23:48:07.658Z,9.47
2019-04-16T23:50:45.399Z,10.63
2019-04-16T23:53:13.012Z,9.03
2019-04-16T23:56:00.005Z,10.67
2019-04-16T23:58:42.642Z,10.83
